createdAt,value
2022-12-09T00:02:04.198Z,99285.25
2022-12-09T00:04:32.248Z,99291.84
2022-12-09T00:06:59.749Z,99286.56
2022-12-09T00:09:27.373Z,99275.97
2022-12-09T00:11:55.276Z,99272.16
2022-12-09T00:14:22.783Z,99280.28
2022-12-09T00:16:50.437Z,99278.78
2022-12-09T00:19:18.306Z,99286.22
2022-12-09T00:21:45.793Z,99293.03
2022-12-09T00:24:13.891Z,99310.03
2022-12-09T00:26:41.935Z,99303.12
2022-12-09T00:29:10.869Z,99310.41
2022-12-09T00:31:39.413Z,99303.44
2022-12-09T00:34:10.899Z,99293.66
2022-12-09T00:36:39.067Z,99307.84
2022-12-09T00:39:07.007Z,99306.13
2022-12-09T00:41:34.589Z,99294.88
2022-12-09T00:44:02.001Z,99295.50
2022-12-09T00:46:30.361Z,99281.59
2022-12-09T00:48:58.113Z,99283.00
2022-12-09T00:51:25.957Z,99290.97
2022-12-09T00:53:55.995Z,99290.25
2022-12-09T00:56:25.376Z,99295.88
2022-12-09T00:58:53.260Z,99303.59
2022-12-09T01:01:21.176Z,99309.34
2022-12-09T01:03:48.975Z,99312.94
2022-12-09T01:06:23.242Z,99310.25
2022-12-09T01:08:51.395Z,99309.69
2022-12-09T01:11:21.548Z,99313.00
2022-12-09T01:13:49.892Z,99306.72
2022-12-09T01:16:20.493Z,99296.81
2022-12-09T01:18:49.907Z,99295.00
2022-12-09T01:21:17.829Z,99296.66
2022-12-09T01:23:45.370Z,99296.09
2022-12-09T01:26:12.825Z,99298.16
2022-12-09T01:28:41.001Z,99292.03
2022-12-09T01:31:11.181Z,99298.25
2022-12-09T01:33:39.257Z,99295.91
2022-12-09T01:36:12.376Z,99289.81
2022-12-09T01:38:40.171Z,99291.13
2022-12-09T01:41:08.209Z,99288.50
2022-12-09T01:43:35.735Z,99285.53
2022-12-09T01:46:03.317Z,99281.88
2022-12-09T01:48:45.015Z,99282.00
2022-12-09T01:51:19.625Z,99300.66
2022-12-09T01:53:50.210Z,99291.38
2022-12-09T01:56:33.456Z,99289.91
2022-12-09T01:59:07.229Z,99290.81
2022-12-09T02:01:35.015Z,99284.59
2022-12-09T02:04:04.018Z,99290.59
2022-12-09T02:06:31.582Z,99281.75
2022-12-09T02:08:59.643Z,99281.66
2022-12-09T02:11:38.707Z,99279.34
2022-12-09T02:14:15.262Z,99280.09
2022-12-09T02:17:01.815Z,99268.78
2022-12-09T02:19:51.148Z,99265.44
2022-12-09T02:22:24.765Z,99264.53
2022-12-09T02:25:02.759Z,99264.88
2022-12-09T02:27:38.253Z,99273.91
2022-12-09T02:30:26.879Z,99271.44
2022-12-09T02:33:32.132Z,99271.00
2022-12-09T02:36:04.108Z,99267.66
2022-12-09T02:38:33.459Z,99267.28
2022-12-09T02:41:31.100Z,99261.59
2022-12-09T02:44:14.293Z,99259.66
2022-12-09T02:46:42.868Z,99254.06
2022-12-09T02:49:11.543Z,99257.53
2022-12-09T02:51:42.707Z,99258.31
2022-12-09T02:54:16.018Z,99263.59
2022-12-09T02:56:53.540Z,99254.72
2022-12-09T02:59:22.190Z,99257.09
2022-12-09T03:02:12.513Z,99249.53
2022-12-09T03:04:42.925Z,99258.66
2022-12-09T03:07:34.758Z,99246.50
2022-12-09T03:10:25.814Z,99256.22
2022-12-09T03:13:01.080Z,99248.13
2022-12-09T03:15:31.898Z,99253.69
2022-12-09T03:18:01.797Z,99264.09
2022-12-09T03:20:31.069Z,99261.03
2022-12-09T03:23:01.388Z,99269.44
2022-12-09T03:25:34.981Z,99270.63
2022-12-09T03:28:06.185Z,99270.00
2022-12-09T03:30:39.779Z,99263.56
2022-12-09T03:33:09.488Z,99268.87
2022-12-09T03:35:41.425Z,99260.03
2022-12-09T03:38:11.510Z,99252.28
2022-12-09T03:40:39.544Z,99253.91
2022-12-09T03:43:16.383Z,99243.97
2022-12-09T03:45:44.192Z,99252.22
2022-12-09T03:48:12.172Z,99259.50
2022-12-09T03:50:43.225Z,99249.16
2022-12-09T03:53:14.829Z,99256.50
2022-12-09T03:55:55.599Z,99258.03
2022-12-09T03:58:23.585Z,99248.75
2022-12-09T04:00:51.860Z,99244.47
2022-12-09T04:03:19.920Z,99247.84
2022-12-09T04:05:47.787Z,99241.75
2022-12-09T04:08:15.235Z,99239.72
2022-12-09T04:10:43.029Z,99239.28
2022-12-09T04:13:10.535Z,99248.75
2022-12-09T04:15:38.090Z,99235.69
2022-12-09T04:18:06.469Z,99238.28
2022-12-09T04:20:33.970Z,99234.84
2022-12-09T04:23:01.367Z,99237.47
2022-12-09T04:25:29.182Z,99238.47
2022-12-09T04:27:57.269Z,99227.12
2022-12-09T04:30:24.775Z,99237.16
2022-12-09T04:32:52.589Z,99234.47
2022-12-09T04:35:20.016Z,99238.47
2022-12-09T04:37:47.403Z,99235.19
2022-12-09T04:40:21.226Z,99224.16
2022-12-09T04:42:51.233Z,99227.06
2022-12-09T04:45:18.932Z,99226.63
2022-12-09T04:47:46.649Z,99228.16
2022-12-09T04:50:14.443Z,99215.66
2022-12-09T04:52:43.187Z,99228.38
2022-12-09T04:55:13.188Z,99224.41
2022-12-09T04:57:40.600Z,99225.25
2022-12-09T05:00:10.582Z,99226.09
2022-12-09T05:02:38.922Z,99223.25
2022-12-09T05:05:07.067Z,99225.47
2022-12-09T05:07:35.061Z,99221.09
2022-12-09T05:10:03.061Z,99219.56
2022-12-09T05:12:32.926Z,99229.91
2022-12-09T05:15:00.818Z,99228.91
2022-12-09T05:17:28.307Z,99229.25
2022-12-09T05:19:55.855Z,99223.06
2022-12-09T05:22:23.900Z,99212.66
2022-12-09T05:24:51.425Z,99214.78
2022-12-09T05:27:19.102Z,99214.75
2022-12-09T05:29:46.965Z,99209.16
2022-12-09T05:32:14.692Z,99215.28
2022-12-09T05:34:42.657Z,99215.81
2022-12-09T05:37:14.685Z,99216.81
2022-12-09T05:39:42.468Z,99219.12
2022-12-09T05:42:10.551Z,99214.72
2022-12-09T05:44:38.002Z,99210.72
2022-12-09T05:47:05.546Z,99217.50
2022-12-09T05:49:34.751Z,99211.38
2022-12-09T05:52:02.885Z,99199.81
2022-12-09T05:54:30.982Z,99206.94
2022-12-09T05:57:01.297Z,99198.50
2022-12-09T05:59:28.850Z,99203.31
2022-12-09T06:01:56.802Z,99202.38
2022-12-09T06:04:24.699Z,99195.81
2022-12-09T06:06:52.789Z,99196.78
2022-12-09T06:09:20.386Z,99197.62
2022-12-09T06:11:48.486Z,99193.00
2022-12-09T06:14:16.176Z,99203.00
2022-12-09T06:16:44.082Z,99188.03
2022-12-09T06:19:12.818Z,99185.13
2022-12-09T06:21:41.076Z,99198.91
2022-12-09T06:24:08.775Z,99197.12
2022-12-09T06:26:36.905Z,99193.25
2022-12-09T06:29:04.408Z,99192.03
2022-12-09T06:31:32.487Z,99195.28
2022-12-09T06:34:01.107Z,99204.22
2022-12-09T06:36:30.387Z,99198.09
2022-12-09T06:39:03.103Z,99193.59
2022-12-09T06:41:35.825Z,99199.38
2022-12-09T06:44:03.524Z,99193.78
2022-12-09T06:46:31.348Z,99191.78
2022-12-09T06:48:59.493Z,99193.22
2022-12-09T06:51:27.463Z,99190.69
2022-12-09T06:53:55.370Z,99193.00
2022-12-09T06:56:23.419Z,99186.41
2022-12-09T06:58:51.289Z,99189.44
2022-12-09T07:01:24.776Z,99187.72
2022-12-09T07:03:55.736Z,99175.28
2022-12-09T07:06:40.281Z,99173.06
2022-12-09T07:09:11.596Z,99179.81
2022-12-09T07:11:40.466Z,99177.81
2022-12-09T07:14:08.884Z,99173.38
2022-12-09T07:16:36.731Z,99175.06
2022-12-09T07:19:04.565Z,99174.44
2022-12-09T07:21:33.306Z,99183.63
2022-12-09T07:24:02.942Z,99180.81
2022-12-09T07:26:32.773Z,99174.66
2022-12-09T07:29:05.210Z,99182.41
2022-12-09T07:31:33.610Z,99181.00
2022-12-09T07:34:02.297Z,99187.25
2022-12-09T07:36:32.202Z,99179.38
2022-12-09T07:39:02.540Z,99175.22
2022-12-09T07:41:30.365Z,99171.44
2022-12-09T07:43:58.002Z,99178.53
2022-12-09T07:46:27.571Z,99168.94
2022-12-09T07:48:57.328Z,99175.22
2022-12-09T07:51:25.408Z,99174.59
2022-12-09T07:53:53.789Z,99167.03
2022-12-09T07:56:22.367Z,99168.31
2022-12-09T07:58:53.361Z,99160.56
2022-12-09T08:01:24.568Z,99160.94
2022-12-09T08:03:52.471Z,99156.97
2022-12-09T08:06:22.656Z,99161.88
2022-12-09T08:08:50.620Z,99154.56
2022-12-09T08:11:25.382Z,99159.12
2022-12-09T08:13:54.112Z,99153.50
2022-12-09T08:16:22.820Z,99156.03
2022-12-09T08:18:51.808Z,99146.69
2022-12-09T08:21:25.032Z,99140.63
2022-12-09T08:23:55.100Z,99142.03
2022-12-09T08:26:25.519Z,99143.31
2022-12-09T08:28:53.587Z,99143.53
2022-12-09T08:31:23.754Z,99142.34
2022-12-09T08:33:53.028Z,99141.53
2022-12-09T08:36:23.909Z,99138.53
2022-12-09T08:38:51.790Z,99126.28
2022-12-09T08:41:38.209Z,99134.09
2022-12-09T08:44:18.791Z,99131.44
2022-12-09T08:46:48.570Z,99122.50
2022-12-09T08:49:22.027Z,99121.00
2022-12-09T08:51:51.732Z,99108.66
2022-12-09T08:54:20.068Z,99111.50
2022-12-09T08:56:50.035Z,99107.28
2022-12-09T08:59:17.887Z,99113.28
2022-12-09T09:01:45.867Z,99114.34
2022-12-09T09:04:16.316Z,99099.41
2022-12-09T09:06:45.953Z,99099.63
2022-12-09T09:09:15.105Z,99092.56
2022-12-09T09:11:43.931Z,99094.63
2022-12-09T09:14:12.606Z,99088.13
2022-12-09T09:16:43.147Z,99090.06
2022-12-09T09:19:18.505Z,99092.94
2022-12-09T09:21:46.491Z,99096.47
2022-12-09T09:24:18.154Z,99088.50
2022-12-09T09:26:47.110Z,99087.03
2022-12-09T09:29:16.720Z,99075.72
2022-12-09T09:31:44.882Z,99077.41
2022-12-09T09:34:14.211Z,99070.78
2022-12-09T09:36:42.223Z,99069.31
2022-12-09T09:39:10.459Z,99066.16
2022-12-09T09:42:00.441Z,99063.84
2022-12-09T09:44:34.790Z,99058.13
2022-12-09T09:47:05.719Z,99056.06
2022-12-09T09:49:56.376Z,99057.28
2022-12-09T09:52:26.808Z,99051.78
2022-12-09T09:54:56.332Z,99046.19
2022-12-09T09:57:41.150Z,99047.56
2022-12-09T10:00:26.652Z,99032.28
2022-12-09T10:03:04.953Z,99030.66
2022-12-09T10:05:35.886Z,99018.00
2022-12-09T10:08:29.052Z,99017.66
2022-12-09T10:11:04.832Z,99015.19
2022-12-09T10:13:52.515Z,98996.25
2022-12-09T10:16:27.225Z,98979.78
2022-12-09T10:19:02.616Z,98974.78
2022-12-09T10:21:38.725Z,98965.13
2022-12-09T10:24:20.637Z,98960.25
2022-12-09T10:26:58.916Z,98946.78
2022-12-09T10:29:49.359Z,98941.00
2022-12-09T10:32:20.558Z,98942.28
2022-12-09T10:34:48.924Z,98936.59
2022-12-09T10:37:33.188Z,98917.84
2022-12-09T10:40:18.090Z,98914.81
2022-12-09T10:43:08.089Z,98904.88
2022-12-09T10:46:16.778Z,98898.69
2022-12-09T10:48:56.224Z,98890.50
2022-12-09T10:51:29.906Z,98881.94
2022-12-09T10:54:19.314Z,98875.94
2022-12-09T10:57:23.499Z,98878.16
2022-12-09T11:00:22.878Z,98886.19
2022-12-09T11:02:54.838Z,98872.09
2022-12-09T11:05:28.660Z,98865.41
2022-12-09T11:07:58.377Z,98853.56
2022-12-09T11:10:28.538Z,98852.78
2022-12-09T11:13:03.801Z,98846.47
2022-12-09T11:15:39.005Z,98837.47
2022-12-09T11:18:23.882Z,98842.28
2022-12-09T11:21:00.971Z,98825.22
2022-12-09T11:23:29.957Z,98826.97
2022-12-09T11:26:01.857Z,98832.12
2022-12-09T11:28:38.440Z,98824.88
2022-12-09T11:31:31.870Z,98828.16
2022-12-09T11:34:04.468Z,98836.09
2022-12-09T11:36:36.775Z,98835.16
2022-12-09T11:39:16.251Z,98825.94
2022-12-09T11:42:16.123Z,98824.50
2022-12-09T11:44:56.725Z,98830.22
2022-12-09T11:48:20.318Z,98823.22
2022-12-09T11:50:33.176Z,98810.97
2022-12-09T11:53:13.032Z,98812.37
2022-12-09T11:55:46.388Z,98811.53
2022-12-09T11:58:23.684Z,98805.22
2022-12-09T12:00:57.066Z,98806.41
2022-12-09T12:03:41.279Z,98777.78
2022-12-09T12:06:24.439Z,98766.06
2022-12-09T12:09:00.991Z,98770.19
2022-12-09T12:11:34.694Z,98773.22
2022-12-09T12:14:15.282Z,98780.34
2022-12-09T12:16:52.772Z,98783.63
2022-12-09T12:19:39.775Z,98785.03
2022-12-09T12:22:25.412Z,98783.81
2022-12-09T12:25:30.138Z,98783.50
2022-12-09T12:28:00.467Z,98754.88
2022-12-09T12:30:56.918Z,98746.44
2022-12-09T12:34:16.160Z,98747.06
2022-12-09T12:36:44.665Z,98746.94
2022-12-09T12:39:42.891Z,98752.78
2022-12-09T12:43:04.486Z,98759.31
2022-12-09T12:45:58.295Z,98751.09
2022-12-09T12:49:03.132Z,98750.19
2022-12-09T12:51:43.240Z,98755.47
2022-12-09T12:54:26.451Z,98747.19
2022-12-09T12:57:02.656Z,98736.34
2022-12-09T12:59:40.637Z,98733.09
2022-12-09T13:02:33.020Z,98723.75
2022-12-09T13:05:04.397Z,98732.59
2022-12-09T13:07:34.173Z,98727.44
2022-12-09T13:10:21.712Z,98731.56
2022-12-09T13:12:54.027Z,98713.91
2022-12-09T13:15:25.771Z,98710.88
2022-12-09T13:17:53.991Z,98712.03
2022-12-09T13:20:28.737Z,98711.94
2022-12-09T13:23:17.747Z,98728.03
2022-12-09T13:26:18.848Z,98721.97
2022-12-09T13:28:54.798Z,98722.88
2022-12-09T13:31:28.316Z,98723.47
2022-12-09T13:34:14.626Z,98704.87
2022-12-09T13:36:47.402Z,98705.09
2022-12-09T13:39:39.529Z,98697.53
2022-12-09T13:42:46.346Z,98699.56
2022-12-09T13:45:34.114Z,98704.19
2022-12-09T13:48:08.695Z,98706.75
2022-12-09T13:50:44.814Z,98698.16
2022-12-09T13:53:21.634Z,98701.16
2022-12-09T13:56:07.954Z,98701.41
2022-12-09T13:59:03.050Z,98706.25
2022-12-09T14:01:48.792Z,98698.13
2022-12-09T14:04:26.591Z,98699.09
2022-12-09T14:07:26.316Z,98696.63
2022-12-09T14:09:55.380Z,98680.88
2022-12-09T14:12:25.631Z,98668.28
2022-12-09T14:14:54.565Z,98666.25
2022-12-09T14:17:25.099Z,98669.44
2022-12-09T14:19:52.375Z,98686.91
2022-12-09T14:22:22.492Z,98692.38
2022-12-09T14:24:54.905Z,98678.22
2022-12-09T14:27:30.186Z,98674.59
2022-12-09T14:30:00.081Z,98672.13
2022-12-09T14:32:37.821Z,98660.72
2022-12-09T14:35:06.309Z,98649.69
2022-12-09T14:37:50.086Z,98652.25
2022-12-09T14:40:39.178Z,98652.75
2022-12-09T14:43:31.314Z,98648.59
2022-12-09T14:46:04.227Z,98641.06
2022-12-09T14:48:34.685Z,98626.09
2022-12-09T14:51:20.374Z,98628.44
2022-12-09T14:54:01.806Z,98624.38
2022-12-09T14:56:30.969Z,98623.44
2022-12-09T14:59:05.878Z,98612.72
2022-12-09T15:01:59.111Z,98618.03
2022-12-09T15:04:32.760Z,98617.69
2022-12-09T15:07:06.624Z,98608.03
2022-12-09T15:09:34.408Z,98616.19
2022-12-09T15:12:02.267Z,98618.16
2022-12-09T15:14:29.713Z,98610.34
2022-12-09T15:16:58.372Z,98601.34
2022-12-09T15:19:58.773Z,98602.47
2022-12-09T15:22:33.168Z,98605.38
2022-12-09T15:25:03.412Z,98598.81
2022-12-09T15:27:31.573Z,98598.41
2022-12-09T15:29:59.417Z,98601.03
2022-12-09T15:32:29.766Z,98586.19
2022-12-09T15:35:16.783Z,98575.22
2022-12-09T15:37:45.806Z,98582.66
2022-12-09T15:40:18.111Z,98569.78
2022-12-09T15:42:51.124Z,98565.47
2022-12-09T15:45:22.355Z,98568.69
2022-12-09T15:48:12.564Z,98562.44
2022-12-09T15:50:46.301Z,98559.69
2022-12-09T15:53:23.269Z,98558.03
2022-12-09T15:56:36.045Z,98571.59
2022-12-09T15:59:17.572Z,98549.31
2022-12-09T16:01:54.371Z,98545.97
2022-12-09T16:04:27.796Z,98539.69
2022-12-09T16:06:57.073Z,98531.78
2022-12-09T16:09:24.931Z,98532.31
2022-12-09T16:11:56.345Z,98533.38
2022-12-09T16:14:26.749Z,98534.53
2022-12-09T16:17:02.455Z,98533.09
2022-12-09T16:19:41.148Z,98515.63
2022-12-09T16:22:29.595Z,98516.22
2022-12-09T16:25:22.458Z,98511.31
2022-12-09T16:28:00.930Z,98500.91
2022-12-09T16:30:32.908Z,98509.44
2022-12-09T16:33:03.054Z,98505.25
2022-12-09T16:35:45.357Z,98495.34
2022-12-09T16:38:19.800Z,98497.03
2022-12-09T16:40:48.769Z,98496.81
2022-12-09T16:43:17.851Z,98479.56
2022-12-09T16:46:01.499Z,98477.19
2022-12-09T16:48:31.291Z,98473.56
2022-12-09T16:51:12.037Z,98461.00
2022-12-09T16:53:45.857Z,98460.81
2022-12-09T16:56:23.263Z,98454.88
2022-12-09T16:58:52.523Z,98447.50
2022-12-09T17:01:22.505Z,98438.59
2022-12-09T17:03:54.523Z,98444.53
2022-12-09T17:06:23.776Z,98440.72
2022-12-09T17:08:52.212Z,98431.53
2022-12-09T17:11:22.322Z,98423.28
2022-12-09T17:13:51.547Z,98430.94
2022-12-09T17:16:27.103Z,98417.75
2022-12-09T17:18:55.679Z,98416.22
2022-12-09T17:21:25.392Z,98410.09
2022-12-09T17:23:54.349Z,98412.72
2022-12-09T17:26:23.911Z,98406.03
2022-12-09T17:28:58.256Z,98397.62
2022-12-09T17:31:30.836Z,98403.78
2022-12-09T17:33:59.086Z,98398.19
2022-12-09T17:36:27.463Z,98400.25
2022-12-09T17:39:00.399Z,98396.06
2022-12-09T17:41:29.183Z,98392.81
2022-12-09T17:44:05.680Z,98396.22
2022-12-09T17:46:34.319Z,98399.66
2022-12-09T17:49:04.779Z,98402.97
2022-12-09T17:51:36.289Z,98394.38
2022-12-09T17:54:08.435Z,98378.97
2022-12-09T17:56:36.121Z,98376.28
2022-12-09T17:59:08.792Z,98376.00
2022-12-09T18:01:37.690Z,98371.16
2022-12-09T18:04:09.851Z,98374.78
2022-12-09T18:06:43.282Z,98363.34
2022-12-09T18:09:13.416Z,98359.09
2022-12-09T18:11:41.589Z,98354.53
2022-12-09T18:14:10.299Z,98358.31
2022-12-09T18:16:40.855Z,98355.78
2022-12-09T18:19:13.520Z,98358.31
2022-12-09T18:21:41.860Z,98360.28
2022-12-09T18:24:09.900Z,98353.47
2022-12-09T18:26:41.561Z,98345.28
2022-12-09T18:29:13.017Z,98340.34
2022-12-09T18:31:41.607Z,98337.44
2022-12-09T18:34:10.596Z,98339.00
2022-12-09T18:36:38.324Z,98337.00
2022-12-09T18:39:06.831Z,98343.69
2022-12-09T18:41:35.386Z,98343.53
2022-12-09T18:44:09.802Z,98340.28
2022-12-09T18:46:45.015Z,98336.50
2022-12-09T18:49:14.323Z,98335.53
2022-12-09T18:51:45.918Z,98335.38
2022-12-09T18:54:20.698Z,98333.25
2022-12-09T18:56:48.757Z,98321.25
2022-12-09T18:59:17.856Z,98316.41
2022-12-09T19:01:50.997Z,98323.81
2022-12-09T19:04:22.587Z,98306.78
2022-12-09T19:06:53.205Z,98311.63
2022-12-09T19:09:24.893Z,98321.63
2022-12-09T19:11:54.910Z,98322.41
2022-12-09T19:14:24.552Z,98310.72
2022-12-09T19:16:55.274Z,98292.84
2022-12-09T19:19:26.525Z,98300.28
2022-12-09T19:21:55.627Z,98292.66
2022-12-09T19:24:26.146Z,98303.00
2022-12-09T19:26:57.193Z,98305.78
2022-12-09T19:29:28.463Z,98294.44
2022-12-09T19:31:58.141Z,98298.44
2022-12-09T19:34:29.759Z,98296.66
2022-12-09T19:37:00.873Z,98289.69
2022-12-09T19:39:31.930Z,98280.50
2022-12-09T19:42:01.152Z,98274.94
2022-12-09T19:44:59.396Z,98265.41
2022-12-09T19:47:20.099Z,98268.91
2022-12-09T19:49:49.902Z,98263.06
2022-12-09T19:52:18.902Z,98248.53
2022-12-09T19:54:49.001Z,98241.06
2022-12-09T19:57:18.919Z,98243.47
2022-12-09T19:59:47.696Z,98246.00
2022-12-09T20:02:16.190Z,98234.22
2022-12-09T20:04:49.063Z,98256.25
2022-12-09T20:07:19.536Z,98254.16
2022-12-09T20:09:50.329Z,98247.78
2022-12-09T20:12:19.615Z,98240.25
2022-12-09T20:14:48.927Z,98250.31
2022-12-09T20:17:17.793Z,98251.12
2022-12-09T20:19:45.935Z,98249.91
2022-12-09T20:22:20.011Z,98246.56
2022-12-09T20:24:48.709Z,98234.94
2022-12-09T20:27:17.901Z,98218.19
2022-12-09T20:29:46.519Z,98206.22
2022-12-09T20:32:15.241Z,98209.06
2022-12-09T20:34:44.417Z,98199.06
2022-12-09T20:37:13.111Z,98188.28
2022-12-09T20:39:41.661Z,98191.22
2022-12-09T20:42:10.274Z,98209.59
2022-12-09T20:44:38.445Z,98206.47
2022-12-09T20:47:08.141Z,98191.34
2022-12-09T20:49:38.014Z,98186.03
2022-12-09T20:52:05.962Z,98185.50
2022-12-09T20:54:40.099Z,98185.16
2022-12-09T20:57:10.622Z,98209.94
2022-12-09T20:59:38.950Z,98193.81
2022-12-09T21:02:13.452Z,98215.53
2022-12-09T21:04:42.600Z,98213.25
2022-12-09T21:07:11.182Z,98203.81
2022-12-09T21:09:39.446Z,98196.59
2022-12-09T21:12:08.307Z,98207.00
2022-12-09T21:14:37.418Z,98199.16
2022-12-09T21:17:05.818Z,98202.94
2022-12-09T21:19:34.946Z,98202.94
2022-12-09T21:22:04.978Z,98208.63
2022-12-09T21:24:34.339Z,98183.38
2022-12-09T21:27:04.947Z,98197.88
2022-12-09T21:29:33.524Z,98200.53
2022-12-09T21:32:02.534Z,98194.53
2022-12-09T21:34:31.777Z,98202.75
2022-12-09T21:37:00.218Z,98193.19
2022-12-09T21:39:29.649Z,98210.63
2022-12-09T21:41:58.792Z,98194.13
2022-12-09T21:44:27.559Z,98207.53
2022-12-09T21:46:55.520Z,98198.66
2022-12-09T21:49:24.372Z,98199.16
2022-12-09T21:51:52.395Z,98202.25
2022-12-09T21:54:19.744Z,98193.94
2022-12-09T21:56:47.437Z,98198.81
2022-12-09T21:59:14.899Z,98197.97
2022-12-09T22:01:43.023Z,98206.62
2022-12-09T22:04:12.935Z,98202.22
2022-12-09T22:06:40.472Z,98198.00
2022-12-09T22:09:09.791Z,98196.88
2022-12-09T22:11:38.438Z,98188.00
2022-12-09T22:14:07.576Z,98194.16
2022-12-09T22:16:40.725Z,98196.09
2022-12-09T22:19:12.981Z,98197.69
2022-12-09T22:21:40.364Z,98192.88
2022-12-09T22:24:09.271Z,98195.03
2022-12-09T22:26:36.987Z,98192.06
2022-12-09T22:29:05.346Z,98188.81
2022-12-09T22:31:36.411Z,98196.13
2022-12-09T22:34:15.218Z,98195.81
2022-12-09T22:36:43.338Z,98191.72
2022-12-09T22:39:14.366Z,98188.50
2022-12-09T22:41:43.442Z,98191.50
2022-12-09T22:44:15.498Z,98189.56
2022-12-09T22:46:43.051Z,98194.16
2022-12-09T22:49:12.781Z,98182.81
2022-12-09T22:51:40.163Z,98193.91
2022-12-09T22:54:08.383Z,98196.25
2022-12-09T22:56:38.154Z,98192.84
2022-12-09T22:59:05.762Z,98195.94
2022-12-09T23:01:35.635Z,98197.13
2022-12-09T23:04:04.960Z,98194.72
2022-12-09T23:06:35.425Z,98205.50
2022-12-09T23:09:03.736Z,98208.22
2022-12-09T23:11:31.627Z,98206.88
2022-12-09T23:14:00.110Z,98209.06
2022-12-09T23:16:28.363Z,98212.31
2022-12-09T23:18:57.226Z,98211.78
2022-12-09T23:21:27.462Z,98199.31
2022-12-09T23:23:58.319Z,98195.56
2022-12-09T23:26:28.107Z,98194.75
2022-12-09T23:28:58.055Z,98192.34
2022-12-09T23:31:29.465Z,98190.91
2022-12-09T23:33:57.509Z,98187.91
2022-12-09T23:36:27.508Z,98196.34
2022-12-09T23:38:55.086Z,98193.63
2022-12-09T23:41:23.666Z,98199.03
2022-12-09T23:43:51.960Z,98198.28
2022-12-09T23:46:25.014Z,98200.69
2022-12-09T23:48:54.059Z,98201.81
2022-12-09T23:51:25.371Z,98197.38
2022-12-09T23:53:55.826Z,98190.38
2022-12-09T23:56:25.675Z,98201.38
2022-12-09T23:58:55.520Z,98204.38
